Главная страница
METAR-TAF:

METAR-TAF

Аэропорты :

военная авиабаза

Линчёпинг, Швеция

широта: 58-24N, долгота: 015-31E, высота над уровнем моря: 93 м

Текущие метеонаблюдения

Эта сводка был подготовлена 37 минут назад, в 13:20 UTC
Ветер 9 Узел от южный, изменяющийся между юго-юго-восточный и юго-западный
Температура 11°C
Влажность 37%
Давление 1029 hPa
Видимость 10 км и более
Нет облачности ниже 1500 м, и нет кучево-дождевой облачности

METAR: ESCF 221320Z 19009KT 160V220 CAVOK 11/M03 Q1029

Время: 14:57 (13:57 UTC)

Прогноз

Эта сводка был подготовлена 5 часа и 27 минут назад, в 08:30 UTC
Прогноз действительный с 22-го 09 UTC до 22-го 14 UTC
Ветер 4 Узел от юго-юго-восточный
Видимость 10 км и более
Нет облачности ниже 1500 м, и нет кучево-дождевой облачности
изменения
С 22-го 09 UTC до 22-го 11 UTC
Ветер 10 Узел от южный с порывами до 18 Узел

TAF: ESCF 220830Z 2209/2214 15004KT CAVOK BECMG 2209/2211 19010G18KT RMK MIL

Метеонаблюдения и прогнозы для более 4000 аэропортов (сводки METAR и TAF).

Имеющиеся станции представлены на карте желтыми и красными точками.

Чтобы увидеть название станции, наведите на нее мышь.

Затем щелкните, чтобы увидеть метеонаблюдения и метеопрогнозы.

Управление картой: чтобы увеличить масштаб, щелкните зеленые кнопки с черным крестиком; чтобы уменьшить масштаб, щелкните зеленую кнопку с тире; для просмотра соседних карт щелкайте зеленые стрелки.


METAR-TAF: